CFQ7 weather

Edmonton / Gartner Airport
Edmonton, Alberta, Canada

Public forecast

Using degrees Celsius for public forecast. Weather courtesy of forecast.io.

METAR (pilot weather report)

Closest report is Edmonton International Airport, 4.8 nm (8.9 km) WNW. Retrieved 2019/07/15 17:00 UTC (12 minutes ago):

CYEG 151700Z 30007KT 270V340 20SM SCT020 SCT120 BKN250 19/14 A2998 RMK CU3AC1CI1 SLP157 DENSITY ALT 3300FT

TAF (pilot weather forecast)

Closest forecast is Edmonton International Airport, 4.8 nm (8.9 km) WNW. Retrieved 2019/07/15 15:42 UTC (1 hour ago):

TAF TAF CYEG 151438Z 1515/1612 30007KT P6SM FEW100 SCT250 FM151800 30008KT P6SM SCT040 BKN080 TEMPO 1518/1602 P6SM -SHRA BKN040 OVC080 PROB30 1519/1602 VRB15G25KT 5SM TSRA OVC040CB FM160200 VRB03KT P6SM SCT060 FM160600 18005KT P6SM BKN060 PROB30 1606/1612 VRB15G25KT 5SM TSRA BR SCT020 BKN060CB RMK NXT FCST BY 151800Z